Terminal Aerodrome Forecast
Issued by NWS Cleveland, OH

Home | Current Version | Previous Version | Graphics & Text | Print | Product List | Glossary On
Versions: 1 2 3 4 5 6 7 8 9 10 11 12 13 14 15 16 17 18
000
FTUS41 KCLE 240000 AAA
TAFERI
TAF AMD
KERI 240020Z 2400/2424 25005KT P6SM SCT045
     FM240600 25005KT P6SM BKN200
     FM241500 26006KT P6SM FEW045 BKN150
     FM242300 26006KT P6SM BKN045 OVC100=

USA.gov is the U.S. government's official web portal to all federal, state and local government web resources and services.